Plainfield, WI

4:27 PM CDT on September 01, 2014 (GMT -0500)
WIDOT Coloma - I-39 @ Czech Ave. | Change Station
CLOSE
Current Station
Personal Weather Station
Location: Coloma, WI
Elevation: 960 ft
Nearby Weather Stations

Elev 960 ft 44.00 °N, 89.50 °W | Updated 26 minutes ago

Partly Cloudy
Partly Cloudy
68 °F
Feels Like 68 °F
N
2
Wind Variable Wind from WNW
Gusts 9.0 mph

Today
High -- | Low -- °F
--% Chance of Precip.
Yesterday
High -- | Low -- °F
Precip. -- in
6:20 AM 7:34 PM
Waxing Crescent, 44% visible
Pressure 29.71 in
Visibility 5.0 miles
Clouds Few 2400 ft
Mostly Cloudy 3300 ft
Mostly Cloudy 4800 ft
Dew Point 62 °F
Humidity 81%
Rainfall -999.00 in
Snow Depth Not available.
UV 2 out of 12
Pollen 3.60 out of 12
Air Quality Not available.
Flu Activity Not available.
METAR KY50 012056Z AUTO 28011KT 5SM BR FEW024 BKN033 BKN048 22/19 A2971 RMK AO2 PWINO

More Conditions Fewer Conditions

Pressure 29.71 in
Visibility 5.0 miles
Clouds Few 2400 ft
Mostly Cloudy 3300 ft
Mostly Cloudy 4800 ft
Dew Point 62 °F
Humidity 81%
Rainfall -999.00 in
Snow Depth Not available.
UV 2 out of 12
Pollen 3.60 out of 12
Air Quality Not available.
Flu Activity Not available.
METAR KY50 012056Z AUTO 28011KT 5SM BR FEW024 BKN033 BKN048 22/19 A2971 RMK AO2 PWINO

More Conditions Fewer Conditions

Nowcast | as of 4:18 PM CDT on September 1, 2014

At 415 PM CDT Doppler radar indicated an area of showers with embedded thunder from Lake Poygan to 19 miles southwest of Rush Lake...moving east at 30 mph. Locations that may be affected include... Lake Poygan...Rush Lake...Oshkosh and Menasha. Gusty winds...small hail and heavy rain may accompany these showers and storms.

×

10-Day Weather Forecast

Almanac

Astronomy

Sep. 01, 2014 Rise Set
Actual Time 6:20 AM CDT 7:34 PM CDT
Civil Twilight 5:51 AM CDT 8:03 PM CDT
Nautical Twilight 5:15 AM CDT 8:39 PM CDT
Astronomical Twilight 4:37 AM CDT 9:17 PM CDT
Moon 1:21 PM CDT 11:20 PM CDT
Length of Visible Light 14h 12m
Length of Day
13h 13m
Tomorrow will be 2m 57s shorter.
Waxing Crescent, 44% of the Moon is Illuminated
Today
Waxing Crescent
Sep 2
First Quarter
Sep 8
Full
Sep 15
Last Quarter
Sep 24
New

Today's Extremes

State Highs State Lows

Community

WunderPhotos

Upload Photos

1,749,413 photos uploaded!

WunderBlogs® & News

Nearby

Snow Depth

Station Depth Elevation
No new snow has been reported.

Earthquake Activity

City Distance Mag. Time & Date
No recent earthquake activity has been reported nearby.
Minimum magnitude displayed is 2.5.

Coastal Water Temperatures

Place Temperature
No Stations Reporting

Nearby Weather Stations